Flight Track Log - Related Links

Times and Time Zones

All times are in EDT time to prevent confusion due to time zone crossing. See the SKW5534 flight status page for this flight to view local times or setup timezone preferences in your user account.

Time Position Orientation Groundspeed Altitude Reporting Facility
EDT Latitude Longitude Course Direction KTS MPH feet Rate Location/Type
Tue 06:29:02 PM 41.5303 -93.6697 240° Southwest 160 184 1,400  Level Minneapolis Center
Tue 06:29:14 PM 41.5242 -93.6836 240° Southwest 174 200 1,800 1,839 Climbing Minneapolis Center
Tue 06:30:04 PM 41.5133 -93.7472 257° West 177 204 3,300 1,714 Climbing Minneapolis Center
Tue 06:31:06 PM 41.5064 -93.8347 264° West 229 264 5,000 2,081 Climbing Minneapolis Center
Tue 06:32:08 PM 41.4969 -93.9392 263° West 259 298 7,600 2,304 Climbing Minneapolis Center
Tue 06:33:11 PM 41.4894 -94.0369 264° West 262 302 9,800 1,968 Climbing Minneapolis Center
Tue 06:34:13 PM 41.4806 -94.1264 262° West 263 303 11,700 1,548 Climbing Minneapolis Center
Tue 06:35:15 PM 41.4550 -94.2261 251° West 289 333 13,000 1,355 Climbing Minneapolis Center
Tue 06:36:17 PM 41.3806 -94.2953 215° Southwest 324 373 14,500 1,500 Climbing Minneapolis Center
Tue 06:37:19 PM 41.2925 -94.3808 216° Southwest 322 371 16,100 1,403 Climbing Minneapolis Center
Tue 06:38:21 PM 41.2164 -94.4603 218° Southwest 337 388 17,400 1,248 Climbing Minneapolis Center
Tue 06:39:24 PM 41.1375 -94.5425 218° Southwest 350 403 18,700 1,152 Climbing Minneapolis Center
Tue 06:40:26 PM 41.0703 -94.6369 227° Southwest 363 418 19,800 1,065 Climbing Minneapolis Center
Tue 06:41:28 PM 41.0728 -94.7622 272° West 344 396 20,900 1,113 Climbing Minneapolis Center
Tue 06:42:30 PM 41.0728 -94.8883 270° West 342 394 22,100 1,113 Climbing Minneapolis Center
Tue 06:43:32 PM 41.0736 -95.0397 270° West 342 394 23,200 1,016 Climbing Minneapolis Center
Tue 06:44:34 PM 41.0756 -95.1686 271° West 344 396 24,200 912 Climbing Minneapolis Center
Tue 06:45:37 PM 41.0761 -95.2972 270° West 346 398 25,100 768 Climbing Minneapolis Center
Tue 06:46:39 PM 41.0775 -95.4267 271° West 346 398 25,800 581 Climbing Minneapolis Center
Tue 06:47:41 PM 41.0778 -95.5575 270° West 349 402 26,300 532 Climbing Minneapolis Center
Tue 06:48:43 PM 41.0786 -95.6928 271° West 358 412 26,900 532 Climbing Minneapolis Center
Tue 06:49:45 PM 41.0794 -95.8300 271° West 364 419 27,400 677 Climbing Minneapolis Center
Tue 06:50:47 PM 41.0794 -95.9950 270° West 367 422 28,300 672 Climbing Minneapolis Center
Tue 06:51:50 PM 41.0797 -96.1317 270° West 367 422 28,800 480 Climbing Minneapolis Center
Tue 06:52:52 PM 41.0806 -96.2678 271° West 367 422 29,300 484 Climbing Minneapolis Center
Tue 06:53:54 PM 41.0803 -96.4028 270° West 367 422 29,800 532 Climbing Minneapolis Center
Tue 06:54:56 PM 41.0800 -96.5372 270° West 366 421 30,400 532 Climbing Minneapolis Center
Tue 06:55:58 PM 41.0797 -96.6714 270° West 365 420 30,900 484 Climbing Minneapolis Center
Tue 06:57:00 PM 41.0786 -96.8039 269° West 363 418 31,400 435 Climbing Minneapolis Center
Tue 06:58:02 PM 41.0789 -96.9631 270° West 362 417 31,800 240 Climbing Minneapolis Center
Tue 06:59:05 PM 41.0775 -97.0972 269° West 362 417 31,900 96 Climbing Minneapolis Center
Tue 07:00:07 PM 41.0767 -97.2342 270° West 369 425 32,000 48 Climbing Minneapolis Center
Tue 07:01:09 PM 41.0758 -97.3736 270° West 372 428 32,000  Level Minneapolis Center
Tue 07:02:11 PM 41.0747 -97.5375 270° West 383 441 32,000  Level Minneapolis Center
Tue 07:03:13 PM 41.0733 -97.6822 269° West 388 447 32,000  Level Minneapolis Center
Tue 07:04:15 PM 41.0717 -97.8269 269° West 392 451 32,000  Level Minneapolis Center
Tue 07:05:18 PM 41.0694 -97.9728 269° West 392 451 32,000  Level Minneapolis Center
Tue 07:06:20 PM 41.0678 -98.1183 269° West 392 451 32,000  Level Minneapolis Center
Tue 07:07:22 PM 41.0656 -98.2633 269° West 392 451 32,000  Level Minneapolis Center
Tue 07:08:24 PM 41.0525 -98.4367 264° West 392 451 32,000  Level Minneapolis Center
Tue 07:09:26 PM 41.0386 -98.5558 261° West 392 451 32,000  Level Minneapolis Center
Tue 07:10:28 PM 41.0175 -98.7278 261° West 392 451 32,000  Level Minneapolis Center
Tue 07:11:30 PM 40.9994 -98.8747 261° West 398 458 32,000  Level Minneapolis Center
Tue 07:12:33 PM 40.9853 -99.0242 263° West 404 465 32,000  Level Minneapolis Center
Tue 07:13:35 PM 40.9697 -99.1764 262° West 404 465 32,000  Level Minneapolis Center
Tue 07:14:37 PM 40.9539 -99.3258 262° West 405 466 32,000  Level Minneapolis Center
Tue 07:15:39 PM 40.9381 -99.4739 262° West 405 466 32,000  Level Minneapolis Center
Tue 07:16:41 PM 40.9231 -99.6219 262° West 405 466 32,000  Level Minneapolis Center
Tue 07:17:43 PM 40.9028 -99.7981 261° West 405 466 32,000  Level Minneapolis Center
Tue 07:18:46 PM 40.8864 -99.9447 262° West 404 465 32,000  Level Minneapolis Center
Tue 07:19:48 PM 40.8700 -100.0911 262° West 404 465 32,000  Level Minneapolis Center
Tue 07:20:50 PM 40.8539 -100.2375 262° West 404 465 32,000  Level Minneapolis Center
Tue 07:21:52 PM 40.8372 -100.3825 261° West 404 465 32,000  Level Minneapolis Center
Tue 07:22:54 PM 40.8206 -100.5286 261° West 404 465 32,000  Level Minneapolis Center
Tue 07:24:13 PM 40.7947 -100.7314 261° West 404 465 32,000  Level Denver Center
Tue 07:25:15 PM 40.7769 -100.8775 261° West 407 468 32,000  Level Denver Center
Tue 07:26:17 PM 40.7578 -101.0392 261° West 402 463 32,000  Level Denver Center
Tue 07:27:18 PM 40.7411 -101.1775 261° West 402 463 32,000  Level Denver Center
Tue 07:28:20 PM 40.7208 -101.3394 261° West 401 461 32,000  Level Denver Center
Tue 07:29:22 PM 40.7036 -101.4781 261° West 401 461 32,000  Level Denver Center
Tue 07:30:24 PM 40.6831 -101.6386 260° West 400 460 32,000  Level Denver Center
Tue 07:31:26 PM 40.6656 -101.7769 261° West 400 460 32,000 -387 Level Denver Center
Tue 07:32:28 PM 40.6436 -101.9406 260° West 405 466 31,200 -823 Descending Denver Center
Tue 07:33:30 PM 40.6250 -102.0878 261° West 421 484 30,300 -919 Descending Denver Center
Tue 07:34:32 PM 40.6056 -102.2378 260° West 431 496 29,300 -1,016 Descending Denver Center
Tue 07:35:34 PM 40.5828 -102.4083 260° West 426 490 28,200 -1,016 Descending Denver Center
Tue 07:36:36 PM 40.5639 -102.5536 260° West 424 488 27,200 -581 Descending Denver Center
Tue 07:37:38 PM 40.5431 -102.7006 259° West 424 488 27,000 -97 Descending Denver Center
Tue 07:38:40 PM 40.5444 -102.8831 271° West 419 482 27,000  Level Denver Center
Tue 07:39:42 PM 40.5539 -103.0353 275° West 420 483 27,000  Level Denver Center
Tue 07:40:44 PM 40.5628 -103.1867 274° West 419 482 27,000 -145 Level Denver Center
Tue 07:41:46 PM 40.5689 -103.3375 273° West 418 481 26,700 -1,403 Descending Denver Center
Tue 07:42:48 PM 40.5694 -103.4892 270° West 418 481 24,100 -2,565 Descending Denver Center
Tue 07:43:50 PM 40.5792 -103.6547 274° West 380 437 21,400 -2,098 Descending Denver Center
Tue 07:44:51 PM 40.5939 -103.7819 279° West 358 412 19,800 -1,512 Descending Denver Center
Tue 07:45:53 PM 40.6067 -103.8983 278° West 328 377 18,300 -1,355 Descending Denver Center
Tue 07:46:55 PM 40.6131 -104.0167 274° West 324 373 17,000 -968 Descending Denver Center
Tue 07:47:57 PM 40.5767 -104.1267 246° West 320 368 16,300 -871 Descending Denver Center
Tue 07:48:59 PM 40.5167 -104.2283 232° Southwest 329 379 15,200 -1,016 Descending Denver Center
Tue 07:50:01 PM 40.4444 -104.3200 224° Southwest 361 415 14,200 -968 Descending Denver Center
Tue 07:51:03 PM 40.3736 -104.4050 222° Southwest 346 398 13,200 -1,016 Descending Denver Center
Tue 07:52:05 PM 40.2928 -104.4886 218° Southwest 345 397 12,100 -1,016 Descending Denver Center
Tue 07:53:07 PM 40.2197 -104.5456 211° Southwest 304 350 11,100 -919 Descending Denver Center
Tue 07:54:09 PM 40.1433 -104.6039 210° Southwest 298 343 10,200 -1,065 Descending Denver Center
Tue 07:55:11 PM 40.0733 -104.6506 207° Southwest 283 326 8,900 -871 Descending Denver Center
Tue 07:56:13 PM 40.0053 -104.6578 185° South 243 280 8,400 -968 Descending Denver Center
Tue 07:57:15 PM 39.9433 -104.6589 181° South 209 241 6,900 -1,065 Descending Denver Center
Tue 07:58:17 PM 39.9014 -104.6592 180° South 149 171 6,200 -677 Descending Denver Center

Login

Don't have an account? Register now (free) for customized features, flight alerts, and more!